Time;durP1;ratioP1;P1;durP2;ratioP2;P2;SDS_P1;SDS_P2;PMS_P1;PMS_P2;Temp;Humidity;BMP_temperature;BMP_pressure;BME280_temperature;BME280_humidity;BME280_pressure;Samples;Min_cycle;Max_cycle;Signal;HPM_P1;HPM_P2
2023/11/07 00:01:29;;;;;;;12.18;2.28;;;8.20;99.90;;;;;;5075508;28;21551;-73
2023/11/07 00:03:55;;;;;;;9.23;2.58;;;8.20;99.90;;;;;;5076987;28;20040;-73
2023/11/07 00:06:20;;;;;;;10.18;2.20;;;8.20;99.90;;;;;;5084524;28;20027;-73
2023/11/07 00:08:46;;;;;;;9.88;1.92;;;8.20;99.90;;;;;;5080002;28;20032;-73
2023/11/07 00:11:11;;;;;;;7.53;2.22;;;8.20;99.90;;;;;;5075188;28;20418;-73
2023/11/07 00:13:37;;;;;;;11.93;2.08;;;8.20;99.90;;;;;;5085063;28;20480;-73
2023/11/07 00:16:03;;;;;;;7.95;1.98;;;8.20;99.90;;;;;;5087844;28;20034;-73
2023/11/07 00:18:29;;;;;;;12.50;2.10;;;8.20;99.90;;;;;;5081216;28;20051;-73
2023/11/07 00:20:56;;;;;;;8.75;2.13;;;8.20;99.90;;;;;;5056634;28;20115;-73
2023/11/07 00:23:22;;;;;;;8.35;1.88;;;8.20;99.90;;;;;;5070245;28;20075;-73
2023/11/07 00:25:47;;;;;;;9.10;2.00;;;8.20;99.90;;;;;;5071600;28;20066;-73
2023/11/07 00:28:13;;;;;;;12.13;2.15;;;8.20;99.90;;;;;;5061955;28;20104;-73
2023/11/07 00:30:38;;;;;;;11.52;2.20;;;8.30;99.90;;;;;;5064275;28;20107;-73
2023/11/07 00:33:04;;;;;;;10.35;2.00;;;8.30;99.90;;;;;;5072543;28;20017;-73
2023/11/07 00:35:30;;;;;;;9.70;1.30;;;8.30;99.90;;;;;;5068437;28;20492;-73
2023/11/07 00:37:57;;;;;;;6.93;1.60;;;8.30;99.90;;;;;;5074705;28;20036;-73
2023/11/07 00:40:22;;;;;;;7.88;1.30;;;8.30;99.90;;;;;;5079170;28;20055;-73
2023/11/07 00:42:48;;;;;;;9.77;1.95;;;8.20;99.90;;;;;;5070850;28;20438;-73
2023/11/07 00:45:14;;;;;;;7.57;1.95;;;8.20;99.90;;;;;;5078528;28;20051;-73
2023/11/07 00:47:39;;;;;;;11.57;2.00;;;8.30;99.90;;;;;;5083577;28;20067;-73
2023/11/07 00:50:08;;;;;;;6.53;1.42;;;8.30;99.90;;;;;;5074244;28;20040;-73
2023/11/07 00:52:33;;;;;;;8.52;1.77;;;8.30;99.90;;;;;;5074289;28;20081;-73
2023/11/07 00:55:00;;;;;;;8.23;1.50;;;8.30;99.90;;;;;;5071918;28;20024;-73
2023/11/07 00:57:25;;;;;;;8.68;1.48;;;8.30;99.90;;;;;;5065648;28;20024;-73
2023/11/07 00:59:51;;;;;;;6.35;1.75;;;8.30;99.90;;;;;;5071932;28;20039;-73
2023/11/07 01:02:16;;;;;;;9.57;1.90;;;8.30;99.90;;;;;;5082478;28;20527;-73
2023/11/07 01:04:42;;;;;;;9.77;1.63;;;8.30;99.90;;;;;;5076838;28;20503;-73
2023/11/07 01:07:08;;;;;;;12.82;1.60;;;8.30;99.90;;;;;;5065422;28;20056;-73
2023/11/07 01:09:34;;;;;;;6.13;1.25;;;8.30;99.90;;;;;;5067057;28;20029;-73
2023/11/07 01:11:59;;;;;;;11.40;1.50;;;8.30;99.90;;;;;;5066710;28;20031;-73
2023/11/07 01:14:25;;;;;;;8.20;1.60;;;8.20;99.90;;;;;;5065491;28;20477;-73
2023/11/07 01:16:51;;;;;;;11.80;1.52;;;8.30;99.90;;;;;;5054222;28;20029;-73
2023/11/07 01:19:16;;;;;;;9.48;2.03;;;8.20;99.90;;;;;;5067532;28;20412;-73
2023/11/07 01:21:42;;;;;;;7.78;1.50;;;8.20;99.90;;;;;;5058628;28;20037;-73
2023/11/07 01:24:09;;;;;;;11.45;1.98;;;8.20;99.90;;;;;;5054691;28;20032;-73
2023/11/07 01:26:34;;;;;;;7.63;1.40;;;8.20;99.90;;;;;;5054154;28;20032;-73
2023/11/07 01:29:00;;;;;;;6.53;1.35;;;8.20;99.90;;;;;;5056690;28;20046;-73
2023/11/07 01:31:25;;;;;;;9.57;1.63;;;8.20;99.90;;;;;;5049763;28;20078;-73
2023/11/07 01:33:51;;;;;;;9.10;1.52;;;8.20;99.90;;;;;;5046822;28;20086;-73
2023/11/07 01:36:16;;;;;;;6.57;1.60;;;8.10;99.90;;;;;;5060104;28;20060;-73
2023/11/07 01:38:42;;;;;;;8.73;1.63;;;8.20;99.90;;;;;;5050489;28;20637;-73
2023/11/07 01:41:07;;;;;;;9.15;1.30;;;8.20;99.90;;;;;;5064524;28;20077;-73
2023/11/07 01:43:33;;;;;;;8.30;1.40;;;8.20;99.90;;;;;;5055992;28;20119;-73
2023/11/07 01:46:02;;;;;;;11.63;1.77;;;8.20;99.90;;;;;;5063636;28;20039;-73
2023/11/07 01:48:29;;;;;;;10.13;1.90;;;8.30;99.90;;;;;;5060497;28;20044;-73
2023/11/07 01:50:55;;;;;;;8.80;1.35;;;8.20;99.90;;;;;;5064459;28;20028;-73
2023/11/07 01:53:21;;;;;;;8.02;1.65;;;8.30;99.90;;;;;;5046219;28;20037;-73
2023/11/07 01:55:46;;;;;;;9.65;1.60;;;8.30;99.90;;;;;;5050020;28;20024;-73
2023/11/07 01:58:12;;;;;;;7.40;1.63;;;8.30;99.90;;;;;;5058838;28;20040;-73
2023/11/07 02:00:39;;;;;;;9.05;1.42;;;8.30;99.90;;;;;;5061277;28;20545;-73
2023/11/07 02:03:06;;;;;;;9.23;1.60;;;8.40;99.90;;;;;;5060706;28;20025;-73
2023/11/07 02:05:33;;;;;;;6.68;1.15;;;8.40;99.90;;;;;;5054522;28;20234;-73
2023/11/07 02:07:59;;;;;;;6.32;0.90;;;8.40;99.90;;;;;;5032040;28;20053;-73
2023/11/07 02:10:24;;;;;;;9.20;1.40;;;8.50;99.90;;;;;;5048934;28;20024;-73
2023/11/07 02:12:50;;;;;;;6.60;1.30;;;8.40;99.90;;;;;;5055007;28;20025;-73
2023/11/07 02:15:23;;;;;;;9.07;1.65;;;8.40;99.90;;;;;;5058532;28;20579;-73
2023/11/07 02:17:49;;;;;;;10.60;1.13;;;8.40;99.90;;;;;;5064832;28;20036;-73
2023/11/07 02:20:17;;;;;;;8.23;1.27;;;8.30;99.90;;;;;;5059039;28;20017;-73
2023/11/07 02:22:46;;;;;;;8.45;1.40;;;8.30;99.90;;;;;;5054111;28;20556;-73
2023/11/07 02:25:16;;;;;;;11.20;1.38;;;8.20;99.90;;;;;;5050078;28;20384;-73
2023/11/07 02:27:42;;;;;;;12.77;2.33;;;8.20;99.90;;;;;;5051270;28;20452;-73
2023/11/07 02:30:12;;;;;;;7.82;1.42;;;8.20;99.90;;;;;;5048863;28;20109;-73
2023/11/07 02:32:41;;;;;;;7.88;1.02;;;8.10;99.90;;;;;;5047730;28;20427;-73
2023/11/07 02:35:08;;;;;;;5.93;1.13;;;8.10;99.90;;;;;;5050741;28;20104;-73
2023/11/07 02:37:34;;;;;;;8.50;1.30;;;8.00;99.90;;;;;;5046627;28;20017;-73
2023/11/07 02:40:00;;;;;;;7.72;1.55;;;8.00;99.90;;;;;;5057968;28;20033;-73
2023/11/07 02:42:29;;;;;;;7.43;1.80;;;8.00;99.90;;;;;;5050753;28;20021;-73
2023/11/07 02:44:56;;;;;;;6.95;1.42;;;8.10;99.90;;;;;;5048132;28;20029;-73
2023/11/07 02:47:21;;;;;;;6.35;1.20;;;8.00;99.90;;;;;;5035804;28;20033;-73
2023/11/07 02:49:47;;;;;;;10.90;1.00;;;8.10;99.90;;;;;;5038990;28;20083;-73
2023/11/07 02:52:12;;;;;;;9.88;1.50;;;8.10;99.90;;;;;;5037621;28;20027;-73
2023/11/07 02:54:38;;;;;;;7.70;1.02;;;8.10;99.90;;;;;;5057023;28;20029;-73
2023/11/07 02:57:04;;;;;;;8.13;1.45;;;8.20;99.90;;;;;;5039713;28;20021;-73
2023/11/07 02:59:31;;;;;;;6.78;1.55;;;8.20;99.90;;;;;;5042545;28;20040;-73
2023/11/07 03:01:57;;;;;;;10.32;1.30;;;8.20;99.90;;;;;;5042777;28;20025;-73
2023/11/07 03:04:22;;;;;;;13.80;2.10;;;8.20;99.90;;;;;;5053140;28;20037;-73
2023/11/07 03:06:52;;;;;;;7.75;1.63;;;8.30;99.90;;;;;;5055811;28;20049;-73
2023/11/07 03:09:18;;;;;;;13.27;1.23;;;8.30;99.90;;;;;;5088383;28;20032;-73
2023/11/07 03:11:43;;;;;;;6.28;1.45;;;8.40;99.90;;;;;;5080369;28;20359;-73
2023/11/07 03:14:09;;;;;;;11.07;1.77;;;8.40;99.90;;;;;;5077950;28;20637;-73
2023/11/07 03:16:35;;;;;;;4.70;1.23;;;8.40;99.90;;;;;;5073772;28;20021;-73
2023/11/07 03:19:01;;;;;;;8.63;1.63;;;8.50;99.90;;;;;;5066101;28;20051;-73
2023/11/07 03:21:27;;;;;;;7.05;1.08;;;8.50;99.90;;;;;;5062961;28;20025;-73
2023/11/07 03:23:52;;;;;;;9.43;1.58;;;8.50;99.90;;;;;;5063387;28;20120;-73
2023/11/07 03:26:18;;;;;;;7.95;1.30;;;8.40;99.90;;;;;;5076062;28;20025;-73
2023/11/07 03:28:43;;;;;;;11.10;2.20;;;8.40;99.90;;;;;;5065403;28;20036;-73
2023/11/07 03:31:09;;;;;;;6.78;1.63;;;8.50;99.90;;;;;;5075711;28;20021;-73
2023/11/07 03:33:35;;;;;;;5.70;1.38;;;8.50;99.90;;;;;;5068683;28;20435;-73
2023/11/07 03:36:00;;;;;;;7.50;1.60;;;8.50;99.90;;;;;;5075788;28;20056;-73
2023/11/07 03:38:26;;;;;;;11.00;1.67;;;8.50;99.90;;;;;;5080839;28;20138;-73
2023/11/07 03:40:52;;;;;;;10.55;1.65;;;8.60;99.90;;;;;;5078137;28;20029;-73
2023/11/07 03:43:17;;;;;;;13.98;2.20;;;8.60;99.90;;;;;;5072919;28;20037;-73
2023/11/07 03:45:43;;;;;;;11.25;2.60;;;8.60;99.90;;;;;;5073337;28;20071;-73
2023/11/07 03:48:09;;;;;;;5.70;2.40;;;8.60;99.90;;;;;;5075520;28;20099;-73
2023/11/07 03:50:34;;;;;;;12.30;2.60;;;8.50;99.90;;;;;;5069646;28;20515;-73
2023/11/07 03:53:00;;;;;;;9.43;1.83;;;8.50;99.90;;;;;;5063821;28;20025;-73
2023/11/07 03:55:26;;;;;;;9.38;2.25;;;8.50;99.90;;;;;;5063498;28;20028;-73
2023/11/07 03:57:51;;;;;;;6.43;2.10;;;8.50;99.90;;;;;;5069481;28;20036;-73
2023/11/07 04:00:19;;;;;;;10.30;2.28;;;8.50;99.90;;;;;;5076324;28;20409;-72
2023/11/07 04:02:45;;;;;;;9.70;2.50;;;8.50;99.90;;;;;;5081818;28;20108;-73
2023/11/07 04:05:10;;;;;;;10.32;2.42;;;8.50;99.90;;;;;;5072283;28;20832;-73
2023/11/07 04:07:36;;;;;;;14.32;2.78;;;8.50;99.90;;;;;;5074426;28;20044;-73
2023/11/07 04:10:01;;;;;;;8.68;2.72;;;8.50;99.90;;;;;;5092152;28;20051;-73
2023/11/07 04:12:27;;;;;;;13.23;2.50;;;8.50;99.90;;;;;;5070176;28;20040;-73
2023/11/07 04:14:54;;;;;;;9.90;2.85;;;8.50;99.90;;;;;;5071108;28;20361;-73
2023/11/07 04:17:20;;;;;;;10.38;2.33;;;8.40;99.90;;;;;;5069005;28;20428;-73
2023/11/07 04:19:47;;;;;;;9.55;3.08;;;8.50;99.90;;;;;;5065878;28;20583;-73
2023/11/07 04:22:12;;;;;;;17.92;3.25;;;8.50;99.90;;;;;;5073050;28;20048;-73
2023/11/07 04:24:38;;;;;;;10.25;3.03;;;8.50;99.90;;;;;;5065596;28;20066;-73
2023/11/07 04:27:04;;;;;;;10.27;2.90;;;8.50;99.90;;;;;;5073709;28;20926;-73
2023/11/07 04:29:30;;;;;;;10.32;3.28;;;8.60;99.90;;;;;;5072705;28;20059;-73
2023/11/07 04:31:56;;;;;;;13.82;3.58;;;8.60;99.90;;;;;;5071649;28;20046;-73
2023/11/07 04:34:21;;;;;;;11.00;3.72;;;8.60;99.90;;;;;;5073308;28;20025;-73
2023/11/07 04:36:47;;;;;;;9.48;2.53;;;8.60;99.90;;;;;;5073052;28;20102;-73
2023/11/07 04:39:12;;;;;;;15.85;3.50;;;8.60;99.90;;;;;;5073070;28;20123;-73
2023/11/07 04:41:38;;;;;;;9.38;3.63;;;8.70;99.90;;;;;;5061739;28;20036;-73
2023/11/07 04:44:05;;;;;;;15.07;4.13;;;8.70;99.90;;;;;;5079239;28;20028;-72
2023/11/07 04:46:31;;;;;;;11.10;3.70;;;8.70;99.90;;;;;;5079381;28;20056;-73
2023/11/07 04:48:57;;;;;;;13.98;3.72;;;8.70;99.90;;;;;;5090255;28;20030;-73
2023/11/07 04:51:23;;;;;;;11.25;3.42;;;8.60;99.90;;;;;;5073096;28;20454;-73
2023/11/07 04:53:49;;;;;;;10.63;3.90;;;8.60;99.90;;;;;;5071435;28;20146;-73
2023/11/07 04:56:15;;;;;;;10.82;3.58;;;8.60;99.90;;;;;;5071725;28;20020;-73
2023/11/07 04:58:41;;;;;;;7.07;3.58;;;8.60;99.90;;;;;;5086827;28;20488;-73
2023/11/07 05:01:07;;;;;;;12.35;4.07;;;8.60;99.90;;;;;;5070593;28;20423;-73
2023/11/07 05:03:33;;;;;;;11.82;4.45;;;8.60;99.90;;;;;;5068150;28;20386;-73
2023/11/07 05:05:59;;;;;;;12.38;4.15;;;8.60;99.90;;;;;;5064334;28;20036;-73
2023/11/07 05:08:25;;;;;;;10.90;4.40;;;8.60;99.90;;;;;;5082598;28;20465;-73
2023/11/07 05:10:51;;;;;;;16.10;4.70;;;8.60;99.90;;;;;;5089456;28;20024;-73
2023/11/07 05:13:16;;;;;;;11.75;4.50;;;8.60;99.90;;;;;;5076041;28;20024;-73
2023/11/07 05:15:42;;;;;;;10.65;4.85;;;8.60;99.90;;;;;;5084349;28;20033;-73
2023/11/07 05:18:10;;;;;;;10.55;4.57;;;8.60;99.90;;;;;;5073371;28;20037;-73
2023/11/07 05:20:36;;;;;;;11.65;5.60;;;8.60;99.90;;;;;;5086595;28;20388;-73
2023/11/07 05:23:02;;;;;;;17.13;5.85;;;8.50;99.90;;;;;;5092849;28;20024;-73
2023/11/07 05:25:27;;;;;;;15.75;5.03;;;8.60;99.90;;;;;;5069309;28;20039;-73
2023/11/07 05:27:53;;;;;;;14.50;5.60;;;8.50;99.90;;;;;;5077348;28;20066;-73
2023/11/07 05:30:19;;;;;;;15.57;5.80;;;8.50;99.90;;;;;;5070650;28;20029;-73
2023/11/07 05:32:47;;;;;;;9.07;5.50;;;8.50;99.90;;;;;;5085363;28;20123;-73
2023/11/07 05:35:14;;;;;;;19.92;6.63;;;8.60;99.90;;;;;;5069242;28;20029;-73
2023/11/07 05:37:39;;;;;;;19.75;7.25;;;8.50;99.90;;;;;;5082018;28;20024;-73
2023/11/07 05:40:06;;;;;;;10.77;5.57;;;8.50;99.90;;;;;;5070394;28;20078;-73
2023/11/07 05:42:31;;;;;;;11.32;5.35;;;8.50;99.90;;;;;;5075307;28;20028;-73
2023/11/07 05:44:57;;;;;;;15.27;6.43;;;8.50;99.90;;;;;;5081207;28;20094;-73
2023/11/07 05:47:22;;;;;;;16.50;6.57;;;8.50;99.90;;;;;;5076046;28;20029;-73
2023/11/07 05:49:50;;;;;;;11.95;5.57;;;8.40;99.90;;;;;;5068078;28;20028;-73
2023/11/07 05:52:16;;;;;;;12.38;5.78;;;8.40;99.90;;;;;;5068330;28;20028;-74
2023/11/07 05:54:42;;;;;;;13.27;7.07;;;8.40;99.90;;;;;;5066643;28;20025;-73
2023/11/07 05:57:08;;;;;;;15.82;6.45;;;8.40;99.90;;;;;;5062881;28;20047;-72
2023/11/07 05:59:34;;;;;;;28.70;8.73;;;8.40;99.90;;;;;;5075504;28;20040;-73
2023/11/07 06:01:59;;;;;;;15.07;6.78;;;8.50;99.90;;;;;;5071418;28;20040;-73
2023/11/07 06:04:31;;;;;;;15.85;6.95;;;8.50;99.90;;;;;;5069952;28;20085;-73
2023/11/07 06:06:59;;;;;;;9.55;5.50;;;8.50;99.90;;;;;;5070867;28;20049;-73
2023/11/07 06:09:26;;;;;;;15.68;6.18;;;8.50;99.90;;;;;;5069858;28;20035;-73
2023/11/07 06:11:53;;;;;;;10.52;5.32;;;8.60;99.90;;;;;;5070702;28;20036;-73
2023/11/07 06:14:19;;;;;;;12.63;6.20;;;8.60;99.90;;;;;;5085570;28;20067;-73
2023/11/07 06:16:45;;;;;;;18.48;6.03;;;8.60;99.90;;;;;;5075072;28;20063;-73
2023/11/07 06:19:10;;;;;;;15.02;6.28;;;8.60;99.90;;;;;;5071436;28;20504;-73
2023/11/07 06:21:39;;;;;;;12.60;5.95;;;8.60;99.90;;;;;;5072064;28;20036;-73
2023/11/07 06:24:06;;;;;;;12.30;5.97;;;8.70;99.90;;;;;;5079969;28;20027;-73
2023/11/07 06:26:33;;;;;;;13.25;6.35;;;8.70;99.90;;;;;;5076240;28;20032;-73
2023/11/07 06:28:58;;;;;;;15.60;5.90;;;8.70;99.90;;;;;;5052489;28;20025;-73
2023/11/07 06:31:27;;;;;;;10.63;5.53;;;8.80;99.90;;;;;;5071652;28;20541;-73
2023/11/07 06:33:53;;;;;;;12.88;5.80;;;8.70;99.90;;;;;;5088729;28;20028;-73
2023/11/07 06:36:19;;;;;;;14.95;5.82;;;8.70;99.90;;;;;;5058762;28;20484;-73
2023/11/07 06:38:45;;;;;;;12.02;5.63;;;8.80;99.90;;;;;;5086166;28;20455;-73
2023/11/07 06:41:11;;;;;;;16.48;5.90;;;8.80;99.90;;;;;;5062447;28;20027;-73
2023/11/07 06:43:39;;;;;;;13.50;5.82;;;8.80;99.90;;;;;;5074543;28;20031;-73
2023/11/07 06:46:04;;;;;;;14.00;6.20;;;8.80;99.90;;;;;;5075437;28;20081;-73
2023/11/07 06:48:30;;;;;;;14.32;6.57;;;8.70;99.90;;;;;;5089920;28;20031;-73
2023/11/07 06:50:57;;;;;;;11.25;6.07;;;8.80;99.90;;;;;;5078805;28;20042;-72
2023/11/07 06:53:23;;;;;;;14.07;6.90;;;8.80;99.90;;;;;;5082664;28;20028;-73
2023/11/07 06:55:49;;;;;;;12.90;6.60;;;8.80;99.90;;;;;;5081854;28;20029;-73
2023/11/07 06:58:14;;;;;;;14.85;6.68;;;8.80;99.90;;;;;;5083214;28;20039;-73
2023/11/07 07:00:40;;;;;;;14.10;5.95;;;8.80;99.90;;;;;;5085894;28;20028;-73
2023/11/07 07:03:06;;;;;;;13.40;6.65;;;8.80;99.90;;;;;;5065438;28;20058;-73
2023/11/07 07:05:31;;;;;;;12.27;6.78;;;8.80;99.90;;;;;;5077394;28;20016;-73
2023/11/07 07:07:57;;;;;;;10.20;5.55;;;8.90;99.90;;;;;;5077832;28;20136;-73
2023/11/07 07:10:23;;;;;;;12.45;5.90;;;8.90;99.90;;;;;;5074937;28;20039;-73
2023/11/07 07:12:49;;;;;;;10.82;6.53;;;9.00;99.90;;;;;;5068791;28;20099;-73
2023/11/07 07:15:14;;;;;;;15.57;7.05;;;9.00;99.90;;;;;;5070308;28;20028;-73
2023/11/07 07:17:40;;;;;;;17.10;7.78;;;9.00;99.90;;;;;;5090802;28;20055;-73
2023/11/07 07:20:12;;;;;;;14.27;7.07;;;9.10;99.90;;;;;;5083070;28;20051;-73
2023/11/07 07:22:41;;;;;;;;;;;9.10;99.90;;;;;;5079561;28;20115;-73
2023/11/07 07:25:08;;;;;;;11.68;6.65;;;9.10;99.90;;;;;;5082077;28;19908;-73
2023/11/07 07:27:34;;;;;;;14.82;6.85;;;9.10;99.90;;;;;;5092019;28;20123;-73
2023/11/07 07:30:01;;;;;;;12.15;6.72;;;9.10;99.90;;;;;;5074689;28;20039;-73
2023/11/07 07:32:26;;;;;;;15.18;7.95;;;9.00;99.90;;;;;;5080028;28;20024;-73
2023/11/07 07:34:52;;;;;;;11.52;7.30;;;9.00;99.90;;;;;;5082341;28;20046;-73
2023/11/07 07:37:20;;;;;;;15.23;6.95;;;9.10;99.90;;;;;;5079450;28;20044;-73
2023/11/07 07:39:49;;;;;;;13.88;7.20;;;9.00;99.90;;;;;;5075860;28;20496;-73
2023/11/07 07:42:17;;;;;;;14.48;6.85;;;9.00;99.90;;;;;;5090998;28;20040;-73
2023/11/07 07:44:44;;;;;;;15.88;7.18;;;9.00;99.90;;;;;;5071702;28;20450;-73
2023/11/07 07:47:10;;;;;;;12.82;6.70;;;9.00;99.90;;;;;;5090604;28;20035;-73
2023/11/07 07:49:36;;;;;;;15.07;7.25;;;9.10;99.90;;;;;;5077302;28;20029;-73
2023/11/07 07:52:02;;;;;;;12.65;6.95;;;9.10;99.90;;;;;;5063344;28;20043;-73
2023/11/07 07:54:29;;;;;;;12.30;7.60;;;9.10;99.90;;;;;;5076310;28;20099;-73
2023/11/07 07:56:56;;;;;;;14.93;6.43;;;9.10;99.90;;;;;;5084318;28;20638;-73
2023/11/07 07:59:25;;;;;;;12.68;6.13;;;9.10;99.90;;;;;;5065677;28;20040;-73
2023/11/07 08:01:57;;;;;;;12.30;6.13;;;9.20;99.90;;;;;;5073722;28;20016;-73
2023/11/07 08:04:28;;;;;;;11.18;6.22;;;9.20;99.90;;;;;;5071987;28;20129;-73
2023/11/07 08:06:54;;;;;;;16.43;6.37;;;9.20;99.90;;;;;;5075975;28;20040;-73
2023/11/07 08:09:22;;;;;;;11.45;6.60;;;9.20;99.90;;;;;;5042977;28;20063;-73
2023/11/07 08:11:50;;;;;;;9.93;5.38;;;9.20;99.90;;;;;;5092044;28;20035;-73
2023/11/07 08:14:16;;;;;;;12.93;5.45;;;9.20;99.90;;;;;;5070982;28;20037;-73
2023/11/07 08:16:43;;;;;;;12.63;5.90;;;9.10;99.90;;;;;;5077845;28;20476;-73
2023/11/07 08:19:10;;;;;;;9.60;5.43;;;9.20;99.90;;;;;;5079318;28;20117;-73
2023/11/07 08:21:37;;;;;;;10.35;4.57;;;9.10;99.90;;;;;;5055496;28;20017;-72
2023/11/07 08:24:04;;;;;;;15.32;5.25;;;9.10;99.90;;;;;;5072946;28;20381;-73
2023/11/07 08:26:30;;;;;;;9.48;4.80;;;9.10;99.90;;;;;;5091563;28;20106;-72
2023/11/07 08:28:55;;;;;;;10.20;4.57;;;9.20;99.90;;;;;;5080082;28;20020;-72
2023/11/07 08:31:21;;;;;;;7.88;3.70;;;9.30;99.90;;;;;;5082750;28;20028;-72
2023/11/07 08:33:49;;;;;;;10.55;3.80;;;9.30;99.90;;;;;;5057271;28;20021;-72
2023/11/07 08:36:17;;;;;;;9.35;3.85;;;9.30;99.90;;;;;;5060250;28;20392;-72
2023/11/07 08:38:43;;;;;;;7.78;3.28;;;9.30;99.90;;;;;;5079820;28;20039;-73
2023/11/07 08:41:08;;;;;;;8.57;2.95;;;9.30;99.90;;;;;;5084946;28;20023;-72
2023/11/07 08:43:35;;;;;;;7.55;3.28;;;9.20;99.90;;;;;;5064551;28;20391;-72
2023/11/07 08:46:01;;;;;;;6.20;2.83;;;9.30;99.90;;;;;;5073244;28;20059;-72
2023/11/07 08:48:27;;;;;;;8.57;3.13;;;9.30;99.90;;;;;;5088919;28;20060;-73
2023/11/07 08:50:52;;;;;;;7.80;3.10;;;9.30;99.90;;;;;;5078260;28;20024;-73
2023/11/07 08:53:18;;;;;;;6.63;3.28;;;9.40;99.90;;;;;;5086592;28;20024;-73
2023/11/07 08:55:44;;;;;;;5.00;2.20;;;9.50;99.90;;;;;;5072781;28;20103;-72
2023/11/07 08:58:09;;;;;;;4.50;2.45;;;9.50;99.90;;;;;;5072474;28;20039;-73
2023/11/07 09:00:35;;;;;;;4.07;2.33;;;9.60;99.90;;;;;;5075615;28;20442;-72
2023/11/07 09:03:01;;;;;;;11.55;2.97;;;9.70;99.90;;;;;;5067925;28;20082;-73
2023/11/07 09:05:27;;;;;;;7.40;2.42;;;9.80;99.90;;;;;;5075055;28;20033;-73
2023/11/07 09:07:54;;;;;;;7.40;3.05;;;9.90;99.90;;;;;;5075502;28;20143;-72
2023/11/07 09:10:20;;;;;;;8.20;3.20;;;9.90;99.90;;;;;;5078406;28;20028;-72
2023/11/07 09:12:46;;;;;;;5.95;3.60;;;9.80;99.90;;;;;;5091369;28;20111;-72
2023/11/07 09:15:11;;;;;;;5.07;2.80;;;9.80;99.90;;;;;;5064800;28;20500;-72
2023/11/07 09:17:41;;;;;;;7.38;3.00;;;9.80;99.90;;;;;;5084413;28;20419;-72
2023/11/07 09:20:14;;;;;;;5.55;2.95;;;9.90;99.90;;;;;;5090181;28;20028;-73
2023/11/07 09:22:43;;;;;;;5.55;2.30;;;9.90;99.90;;;;;;5066496;28;20079;-72
2023/11/07 09:25:09;;;;;;;5.70;2.50;;;10.10;99.90;;;;;;5076460;28;20028;-72
2023/11/07 09:27:36;;;;;;;5.57;2.72;;;10.40;99.90;;;;;;5072028;28;20024;-72
2023/11/07 09:30:04;;;;;;;8.05;3.30;;;10.70;99.90;;;;;;5071789;28;20013;-72
2023/11/07 09:32:30;;;;;;;7.05;3.00;;;10.90;99.90;;;;;;5068088;28;20392;-72
2023/11/07 09:34:57;;;;;;;5.93;2.30;;;11.00;99.90;;;;;;5075324;28;20028;-72
2023/11/07 09:37:23;;;;;;;6.80;2.97;;;11.10;99.90;;;;;;5082098;28;20035;-73
2023/11/07 09:39:50;;;;;;;4.82;2.13;;;11.20;99.90;;;;;;5073447;28;20102;-73
2023/11/07 09:42:16;;;;;;;5.45;2.53;;;11.30;99.90;;;;;;5085996;28;20016;-73
2023/11/07 09:44:42;;;;;;;5.07;2.05;;;11.40;99.90;;;;;;5070265;28;20028;-73
2023/11/07 09:47:08;;;;;;;5.57;2.15;;;11.50;99.90;;;;;;5063573;28;20029;-72
2023/11/07 09:49:34;;;;;;;5.22;1.95;;;11.50;99.90;;;;;;5071178;28;20028;-73
2023/11/07 09:52:05;;;;;;;4.43;1.83;;;11.40;99.90;;;;;;5077759;28;20487;-73
2023/11/07 09:54:32;;;;;;;5.00;2.08;;;11.30;99.90;;;;;;5058512;28;20032;-72
2023/11/07 09:57:08;;;;;;;3.83;1.65;;;11.20;99.90;;;;;;5071725;28;20025;-72
2023/11/07 09:59:36;;;;;;;4.78;1.98;;;11.10;99.90;;;;;;5056375;28;20074;-72
2023/11/07 10:02:03;;;;;;;4.22;1.98;;;11.10;99.90;;;;;;5064898;28;20113;-73
2023/11/07 10:04:31;;;;;;;10.02;1.65;;;11.00;99.90;;;;;;5067069;28;20029;-73
2023/11/07 10:06:58;;;;;;;5.07;2.08;;;10.90;99.90;;;;;;5067705;28;20446;-73
2023/11/07 10:09:26;;;;;;;3.95;1.52;;;10.80;99.90;;;;;;5091701;28;20085;-72
2023/11/07 10:11:53;;;;;;;3.72;1.80;;;10.80;99.90;;;;;;5086952;28;20028;-72
2023/11/07 10:14:20;;;;;;;3.80;1.20;;;10.80;99.90;;;;;;5068162;28;20028;-73
2023/11/07 10:16:52;;;;;;;5.68;1.25;;;10.70;99.90;;;;;;5069599;28;20492;-72
2023/11/07 10:19:23;;;;;;;5.85;1.27;;;10.70;99.90;;;;;;5071503;28;20047;-72
2023/11/07 10:21:51;;;;;;;4.43;1.38;;;10.70;99.90;;;;;;5083512;28;20028;-72
2023/11/07 10:24:17;;;;;;;3.03;1.02;;;10.80;99.90;;;;;;5077124;28;20033;-73
2023/11/07 10:26:58;;;;;;;5.55;1.75;;;10.90;99.90;;;;;;5070971;28;20403;-72
2023/11/07 10:29:30;;;;;;;5.10;1.48;;;11.00;99.90;;;;;;5064084;28;20028;-72
2023/11/07 10:32:08;;;;;;;6.70;1.43;;;11.00;99.90;;;;;;5070687;28;20046;-72
2023/11/07 10:34:35;;;;;;;4.78;2.20;;;11.00;99.90;;;;;;5066132;28;20455;-72
2023/11/07 10:37:01;;;;;;;6.68;1.55;;;11.00;99.90;;;;;;5069886;28;20385;-73
2023/11/07 10:39:27;;;;;;;3.10;0.88;;;11.00;99.90;;;;;;5070078;28;20044;-72
2023/11/07 10:41:56;;;;;;;3.33;0.90;;;11.10;99.90;;;;;;5070178;28;20036;-73
2023/11/07 10:44:29;;;;;;;5.10;1.17;;;11.10;99.90;;;;;;5072212;28;20028;-72
2023/11/07 10:47:00;;;;;;;3.45;0.88;;;11.20;99.90;;;;;;5075163;28;20028;-72
2023/11/07 10:49:26;;;;;;;3.70;0.80;;;11.20;99.90;;;;;;5077921;28;20016;-72
2023/11/07 10:51:52;;;;;;;4.47;0.98;;;11.20;99.90;;;;;;5072393;28;20043;-72
2023/11/07 10:54:21;;;;;;;4.90;0.93;;;11.20;99.90;;;;;;5089603;28;20024;-72
2023/11/07 10:56:50;;;;;;;9.05;1.30;;;11.20;99.90;;;;;;5055403;28;20437;-73
2023/11/07 10:59:24;;;;;;;2.47;0.73;;;11.20;99.90;;;;;;5082184;28;20032;-72
2023/11/07 11:01:51;;;;;;;3.08;0.90;;;11.20;99.90;;;;;;5062266;28;20036;-73
2023/11/07 11:04:20;;;;;;;2.92;0.90;;;11.30;99.90;;;;;;5074714;28;20483;-73
2023/11/07 11:06:52;;;;;;;2.50;0.88;;;11.30;99.90;;;;;;5077371;28;20040;-72
2023/11/07 11:09:19;;;;;;;3.83;0.88;;;11.20;99.90;;;;;;5094986;28;20070;-72
2023/11/07 11:11:54;;;;;;;3.00;0.70;;;11.30;99.90;;;;;;5082769;28;20028;-73
2023/11/07 11:14:20;;;;;;;4.78;1.00;;;11.20;99.90;;;;;;5078385;28;20507;-73
2023/11/07 11:16:47;;;;;;;2.97;0.70;;;11.20;99.90;;;;;;5076060;28;20063;-73
2023/11/07 11:19:24;;;;;;;4.75;0.60;;;11.30;99.90;;;;;;5074477;28;20493;-72
2023/11/07 11:22:20;;;;;;;4.18;0.70;;;11.50;99.90;;;;;;5074881;28;20034;-73
2023/11/07 11:24:45;;;;;;;4.38;0.93;;;11.60;99.90;;;;;;5083123;28;20039;-73
2023/11/07 11:27:21;;;;;;;5.32;0.80;;;11.60;99.90;;;;;;5086074;28;20473;-72
2023/11/07 11:29:47;;;;;;;5.57;0.77;;;11.50;99.90;;;;;;5074259;28;20024;-73
2023/11/07 11:32:28;;;;;;;3.15;0.50;;;11.60;99.90;;;;;;5064329;28;20024;-72
2023/11/07 11:35:17;;;;;;;3.42;0.60;;;11.70;99.90;;;;;;5073071;28;20436;-72
2023/11/07 11:38:21;;;;;;;2.58;0.80;;;11.80;99.90;;;;;;5078149;28;20086;-73
2023/11/07 11:40:57;;;;;;;4.57;0.75;;;11.90;99.90;;;;;;5073475;28;20086;-72
2023/11/07 11:43:25;;;;;;;2.22;0.77;;;12.10;99.90;;;;;;5076074;28;20016;-72
2023/11/07 11:45:52;;;;;;;3.00;0.70;;;12.20;99.90;;;;;;5074358;28;20067;-72
2023/11/07 11:48:21;;;;;;;3.60;0.70;;;12.30;99.90;;;;;;5079111;28;20020;-73
2023/11/07 11:50:48;;;;;;;4.43;0.98;;;12.40;99.90;;;;;;5083544;28;20032;-72
2023/11/07 11:53:32;;;;;;;1.88;0.50;;;12.50;99.90;;;;;;5084422;28;20028;-72
2023/11/07 11:55:58;;;;;;;3.80;0.80;;;12.50;99.90;;;;;;5073677;28;20061;-72
2023/11/07 11:58:30;;;;;;;3.85;0.50;;;12.40;99.90;;;;;;5081264;28;20494;-73
2023/11/07 12:00:57;;;;;;;7.25;1.25;;;12.40;99.90;;;;;;5083312;28;20037;-72
2023/11/07 12:03:24;;;;;;;4.15;1.25;;;12.50;99.90;;;;;;5071003;28;20496;-72
2023/11/07 12:06:01;;;;;;;4.35;0.70;;;12.60;99.90;;;;;;5085192;28;20031;-72
2023/11/07 12:08:38;;;;;;;5.05;1.08;;;12.60;99.90;;;;;;5082784;28;20055;-73
2023/11/07 12:11:04;;;;;;;3.40;0.70;;;12.60;99.90;;;;;;5077870;28;20067;-73
2023/11/07 12:13:33;;;;;;;3.90;1.10;;;12.50;99.90;;;;;;5082772;28;20032;-73
2023/11/07 12:16:18;;;;;;;5.13;0.85;;;12.40;99.90;;;;;;5081820;28;20024;-73
2023/11/07 12:18:46;;;;;;;3.47;0.60;;;12.30;99.90;;;;;;5078615;28;20044;-72
2023/11/07 12:21:23;;;;;;;4.28;0.55;;;12.10;99.90;;;;;;5076106;28;20081;-73
2023/11/07 12:23:55;;;;;;;5.72;0.70;;;12.10;99.90;;;;;;5065306;28;20032;-74
2023/11/07 12:26:22;;;;;;;6.13;1.15;;;12.10;99.90;;;;;;5068622;28;20178;-73
2023/11/07 12:28:48;;;;;;;1.83;0.60;;;12.20;99.90;;;;;;5075473;28;20448;-73
2023/11/07 12:31:15;;;;;;;5.35;0.88;;;12.20;99.90;;;;;;5089002;28;20434;-73
2023/11/07 12:33:42;;;;;;;3.67;0.50;;;12.30;99.90;;;;;;5085819;28;20028;-73
2023/11/07 12:36:10;;;;;;;5.13;0.70;;;12.40;99.90;;;;;;5062835;28;20583;-72
2023/11/07 12:38:37;;;;;;;3.50;0.68;;;12.50;99.90;;;;;;5080932;28;20079;-73
2023/11/07 12:41:05;;;;;;;2.47;0.77;;;12.60;99.90;;;;;;5082099;28;20056;-72
2023/11/07 12:43:41;;;;;;;3.30;0.80;;;12.60;99.90;;;;;;5087150;28;20031;-73
2023/11/07 12:46:11;;;;;;;4.75;0.90;;;12.60;99.90;;;;;;5078415;28;20036;-72
2023/11/07 12:48:37;;;;;;;3.17;0.70;;;12.60;99.90;;;;;;5066899;28;20016;-72
2023/11/07 12:51:06;;;;;;;4.80;0.60;;;12.60;99.90;;;;;;5075439;28;20788;-72